sensor_id;sensor_type;location;lat;lon;timestamp;P1;durP1;ratioP1;P2;durP2;ratioP2
57605;SDS011;43430;48.204;11.556;2022-11-20T00:01:11;4.28;;;0.75;;
57605;SDS011;43430;48.204;11.556;2022-11-20T00:03:37;3.20;;;0.90;;
57605;SDS011;43430;48.204;11.556;2022-11-20T00:06:04;3.13;;;0.60;;
57605;SDS011;43430;48.204;11.556;2022-11-20T00:08:31;3.03;;;0.80;;
57605;SDS011;43430;48.204;11.556;2022-11-20T00:10:56;5.55;;;0.98;;
57605;SDS011;43430;48.204;11.556;2022-11-20T00:13:21;4.22;;;0.90;;
57605;SDS011;43430;48.204;11.556;2022-11-20T00:15:47;5.00;;;0.90;;
57605;SDS011;43430;48.204;11.556;2022-11-20T00:18:12;4.07;;;0.82;;
57605;SDS011;43430;48.204;11.556;2022-11-20T00:20:38;4.57;;;1.00;;
57605;SDS011;43430;48.204;11.556;2022-11-20T00:23:03;2.70;;;0.75;;
57605;SDS011;43430;48.204;11.556;2022-11-20T00:25:28;2.95;;;0.88;;
57605;SDS011;43430;48.204;11.556;2022-11-20T00:27:54;2.42;;;0.77;;
57605;SDS011;43430;48.204;11.556;2022-11-20T00:30:19;4.43;;;0.75;;
57605;SDS011;43430;48.204;11.556;2022-11-20T00:32:44;5.57;;;0.80;;
57605;SDS011;43430;48.204;11.556;2022-11-20T00:35:10;3.13;;;0.80;;
57605;SDS011;43430;48.204;11.556;2022-11-20T00:37:35;3.17;;;1.00;;
57605;SDS011;43430;48.204;11.556;2022-11-20T00:40:00;5.43;;;1.23;;
57605;SDS011;43430;48.204;11.556;2022-11-20T00:42:25;3.75;;;1.08;;
57605;SDS011;43430;48.204;11.556;2022-11-20T00:44:51;3.28;;;0.90;;
57605;SDS011;43430;48.204;11.556;2022-11-20T00:47:16;5.07;;;0.77;;
57605;SDS011;43430;48.204;11.556;2022-11-20T00:49:41;3.40;;;0.95;;
57605;SDS011;43430;48.204;11.556;2022-11-20T00:52:07;3.67;;;0.85;;
57605;SDS011;43430;48.204;11.556;2022-11-20T00:54:32;3.47;;;1.00;;
57605;SDS011;43430;48.204;11.556;2022-11-20T00:56:57;3.47;;;1.25;;
57605;SDS011;43430;48.204;11.556;2022-11-20T00:59:23;3.25;;;0.80;;
57605;SDS011;43430;48.204;11.556;2022-11-20T01:01:48;2.75;;;0.60;;
57605;SDS011;43430;48.204;11.556;2022-11-20T01:04:13;4.03;;;1.13;;
57605;SDS011;43430;48.204;11.556;2022-11-20T01:06:39;5.35;;;1.17;;
57605;SDS011;43430;48.204;11.556;2022-11-20T01:09:06;3.00;;;0.90;;
57605;SDS011;43430;48.204;11.556;2022-11-20T01:11:35;3.95;;;1.20;;
57605;SDS011;43430;48.204;11.556;2022-11-20T01:14:04;3.20;;;0.88;;
57605;SDS011;43430;48.204;11.556;2022-11-20T01:16:32;2.97;;;1.10;;
57605;SDS011;43430;48.204;11.556;2022-11-20T01:19:03;2.63;;;0.57;;
57605;SDS011;43430;48.204;11.556;2022-11-20T01:21:32;3.20;;;1.20;;
57605;SDS011;43430;48.204;11.556;2022-11-20T01:23:59;3.95;;;1.15;;
57605;SDS011;43430;48.204;11.556;2022-11-20T01:26:29;4.97;;;1.15;;
57605;SDS011;43430;48.204;11.556;2022-11-20T01:28:57;4.03;;;1.25;;
57605;SDS011;43430;48.204;11.556;2022-11-20T01:31:24;4.55;;;0.90;;
57605;SDS011;43430;48.204;11.556;2022-11-20T01:33:53;2.60;;;1.13;;
57605;SDS011;43430;48.204;11.556;2022-11-20T01:36:20;3.20;;;1.02;;
57605;SDS011;43430;48.204;11.556;2022-11-20T01:38:47;3.47;;;1.13;;
57605;SDS011;43430;48.204;11.556;2022-11-20T01:41:14;2.55;;;1.00;;
57605;SDS011;43430;48.204;11.556;2022-11-20T01:44:00;3.67;;;1.20;;
57605;SDS011;43430;48.204;11.556;2022-11-20T01:46:26;2.88;;;0.77;;
57605;SDS011;43430;48.204;11.556;2022-11-20T01:48:54;4.05;;;1.00;;
57605;SDS011;43430;48.204;11.556;2022-11-20T01:51:42;2.97;;;0.90;;
57605;SDS011;43430;48.204;11.556;2022-11-20T01:54:19;3.47;;;0.65;;
57605;SDS011;43430;48.204;11.556;2022-11-20T01:56:50;3.05;;;0.90;;
57605;SDS011;43430;48.204;11.556;2022-11-20T01:59:20;4.78;;;1.38;;
57605;SDS011;43430;48.204;11.556;2022-11-20T02:01:49;4.28;;;1.23;;
57605;SDS011;43430;48.204;11.556;2022-11-20T02:04:14;3.08;;;1.00;;
57605;SDS011;43430;48.204;11.556;2022-11-20T02:06:46;3.60;;;1.35;;
57605;SDS011;43430;48.204;11.556;2022-11-20T02:09:15;3.35;;;0.88;;
57605;SDS011;43430;48.204;11.556;2022-11-20T02:11:41;4.22;;;1.27;;
57605;SDS011;43430;48.204;11.556;2022-11-20T02:14:06;4.70;;;1.48;;
57605;SDS011;43430;48.204;11.556;2022-11-20T02:16:37;4.50;;;1.25;;
57605;SDS011;43430;48.204;11.556;2022-11-20T02:19:06;3.33;;;1.17;;
57605;SDS011;43430;48.204;11.556;2022-11-20T02:21:43;4.43;;;1.13;;
57605;SDS011;43430;48.204;11.556;2022-11-20T02:24:15;4.28;;;1.13;;
57605;SDS011;43430;48.204;11.556;2022-11-20T02:29:23;4.10;;;1.00;;
57605;SDS011;43430;48.204;11.556;2022-11-20T02:31:50;3.55;;;1.15;;
57605;SDS011;43430;48.204;11.556;2022-11-20T02:34:17;4.85;;;1.25;;
57605;SDS011;43430;48.204;11.556;2022-11-20T02:36:42;3.42;;;1.33;;
57605;SDS011;43430;48.204;11.556;2022-11-20T02:39:09;4.45;;;1.08;;
57605;SDS011;43430;48.204;11.556;2022-11-20T02:41:38;3.10;;;1.02;;
57605;SDS011;43430;48.204;11.556;2022-11-20T02:44:04;4.95;;;0.90;;
57605;SDS011;43430;48.204;11.556;2022-11-20T02:46:31;8.32;;;1.63;;
57605;SDS011;43430;48.204;11.556;2022-11-20T02:48:57;4.38;;;1.25;;
57605;SDS011;43430;48.204;11.556;2022-11-20T02:51:23;3.88;;;1.17;;
57605;SDS011;43430;48.204;11.556;2022-11-20T02:53:48;4.38;;;1.40;;
57605;SDS011;43430;48.204;11.556;2022-11-20T02:56:14;4.20;;;1.45;;
57605;SDS011;43430;48.204;11.556;2022-11-20T02:58:40;5.90;;;1.33;;
57605;SDS011;43430;48.204;11.556;2022-11-20T03:01:05;4.32;;;1.67;;
57605;SDS011;43430;48.204;11.556;2022-11-20T03:03:30;4.72;;;1.42;;
57605;SDS011;43430;48.204;11.556;2022-11-20T03:05:58;5.47;;;1.63;;
57605;SDS011;43430;48.204;11.556;2022-11-20T03:08:24;4.60;;;1.17;;
57605;SDS011;43430;48.204;11.556;2022-11-20T03:10:49;5.95;;;1.73;;
57605;SDS011;43430;48.204;11.556;2022-11-20T03:13:15;3.35;;;0.98;;
57605;SDS011;43430;48.204;11.556;2022-11-20T03:15:40;5.00;;;1.20;;
57605;SDS011;43430;48.204;11.556;2022-11-20T03:18:05;5.20;;;1.40;;
57605;SDS011;43430;48.204;11.556;2022-11-20T03:20:32;5.78;;;1.30;;
57605;SDS011;43430;48.204;11.556;2022-11-20T03:22:58;3.10;;;1.15;;
57605;SDS011;43430;48.204;11.556;2022-11-20T03:25:23;3.30;;;0.85;;
57605;SDS011;43430;48.204;11.556;2022-11-20T03:27:49;3.15;;;1.10;;
57605;SDS011;43430;48.204;11.556;2022-11-20T03:30:14;3.78;;;1.10;;
57605;SDS011;43430;48.204;11.556;2022-11-20T03:32:40;3.72;;;1.10;;
57605;SDS011;43430;48.204;11.556;2022-11-20T03:35:05;3.40;;;0.90;;
57605;SDS011;43430;48.204;11.556;2022-11-20T03:37:31;5.93;;;1.08;;
57605;SDS011;43430;48.204;11.556;2022-11-20T03:39:57;3.13;;;0.90;;
57605;SDS011;43430;48.204;11.556;2022-11-20T03:42:22;5.30;;;1.20;;
57605;SDS011;43430;48.204;11.556;2022-11-20T03:45:06;4.15;;;1.20;;
57605;SDS011;43430;48.204;11.556;2022-11-20T03:47:32;4.30;;;1.00;;
57605;SDS011;43430;48.204;11.556;2022-11-20T03:49:57;2.65;;;0.88;;
57605;SDS011;43430;48.204;11.556;2022-11-20T03:52:22;3.08;;;1.05;;
57605;SDS011;43430;48.204;11.556;2022-11-20T03:54:47;3.08;;;1.02;;
57605;SDS011;43430;48.204;11.556;2022-11-20T03:57:13;2.92;;;0.88;;
57605;SDS011;43430;48.204;11.556;2022-11-20T03:59:38;3.08;;;0.90;;
57605;SDS011;43430;48.204;11.556;2022-11-20T04:02:03;3.97;;;1.30;;
57605;SDS011;43430;48.204;11.556;2022-11-20T04:04:29;3.28;;;0.90;;
57605;SDS011;43430;48.204;11.556;2022-11-20T04:06:54;5.07;;;1.20;;
57605;SDS011;43430;48.204;11.556;2022-11-20T04:09:19;3.22;;;0.85;;
57605;SDS011;43430;48.204;11.556;2022-11-20T04:11:45;2.33;;;0.70;;
57605;SDS011;43430;48.204;11.556;2022-11-20T04:14:14;3.80;;;0.80;;
57605;SDS011;43430;48.204;11.556;2022-11-20T04:16:40;2.35;;;0.50;;
57605;SDS011;43430;48.204;11.556;2022-11-20T04:19:09;3.72;;;0.70;;
57605;SDS011;43430;48.204;11.556;2022-11-20T04:21:36;3.58;;;0.75;;
57605;SDS011;43430;48.204;11.556;2022-11-20T04:24:02;3.45;;;0.80;;
57605;SDS011;43430;48.204;11.556;2022-11-20T04:26:28;5.05;;;1.33;;
57605;SDS011;43430;48.204;11.556;2022-11-20T04:28:54;2.25;;;0.85;;
57605;SDS011;43430;48.204;11.556;2022-11-20T04:31:21;2.85;;;0.90;;
57605;SDS011;43430;48.204;11.556;2022-11-20T04:33:48;3.50;;;0.93;;
57605;SDS011;43430;48.204;11.556;2022-11-20T04:36:18;2.95;;;0.80;;
57605;SDS011;43430;48.204;11.556;2022-11-20T04:38:45;2.53;;;0.82;;
57605;SDS011;43430;48.204;11.556;2022-11-20T04:41:13;3.17;;;0.70;;
57605;SDS011;43430;48.204;11.556;2022-11-20T04:43:41;2.65;;;1.08;;
57605;SDS011;43430;48.204;11.556;2022-11-20T04:46:06;2.85;;;0.95;;
57605;SDS011;43430;48.204;11.556;2022-11-20T04:48:32;3.90;;;1.40;;
57605;SDS011;43430;48.204;11.556;2022-11-20T04:50:57;3.45;;;0.80;;
57605;SDS011;43430;48.204;11.556;2022-11-20T04:53:23;2.95;;;1.23;;
57605;SDS011;43430;48.204;11.556;2022-11-20T04:55:49;4.95;;;0.93;;
57605;SDS011;43430;48.204;11.556;2022-11-20T04:58:14;3.05;;;0.82;;
57605;SDS011;43430;48.204;11.556;2022-11-20T05:00:40;3.63;;;0.85;;
57605;SDS011;43430;48.204;11.556;2022-11-20T05:03:06;4.22;;;1.02;;
57605;SDS011;43430;48.204;11.556;2022-11-20T05:05:33;3.15;;;1.10;;
57605;SDS011;43430;48.204;11.556;2022-11-20T05:07:59;3.40;;;1.08;;
57605;SDS011;43430;48.204;11.556;2022-11-20T05:10:24;3.50;;;1.38;;
57605;SDS011;43430;48.204;11.556;2022-11-20T05:12:50;2.47;;;0.82;;
57605;SDS011;43430;48.204;11.556;2022-11-20T05:15:16;3.33;;;1.02;;
57605;SDS011;43430;48.204;11.556;2022-11-20T05:17:46;3.45;;;1.25;;
57605;SDS011;43430;48.204;11.556;2022-11-20T05:20:13;3.50;;;1.08;;
57605;SDS011;43430;48.204;11.556;2022-11-20T05:22:38;2.75;;;0.93;;
57605;SDS011;43430;48.204;11.556;2022-11-20T05:25:04;4.15;;;1.00;;
57605;SDS011;43430;48.204;11.556;2022-11-20T05:27:30;2.85;;;0.93;;
57605;SDS011;43430;48.204;11.556;2022-11-20T05:29:55;3.25;;;1.27;;
57605;SDS011;43430;48.204;11.556;2022-11-20T05:32:20;2.88;;;0.95;;
57605;SDS011;43430;48.204;11.556;2022-11-20T05:34:45;3.90;;;0.68;;
57605;SDS011;43430;48.204;11.556;2022-11-20T05:37:11;3.53;;;0.55;;
57605;SDS011;43430;48.204;11.556;2022-11-20T05:39:36;4.57;;;0.88;;
57605;SDS011;43430;48.204;11.556;2022-11-20T05:42:01;3.42;;;0.80;;
57605;SDS011;43430;48.204;11.556;2022-11-20T05:44:45;2.92;;;0.73;;
57605;SDS011;43430;48.204;11.556;2022-11-20T05:47:10;3.70;;;0.50;;
57605;SDS011;43430;48.204;11.556;2022-11-20T05:49:36;3.75;;;1.30;;
57605;SDS011;43430;48.204;11.556;2022-11-20T05:52:01;3.50;;;1.10;;
57605;SDS011;43430;48.204;11.556;2022-11-20T05:54:27;3.42;;;0.90;;
57605;SDS011;43430;48.204;11.556;2022-11-20T05:56:52;3.25;;;0.80;;
57605;SDS011;43430;48.204;11.556;2022-11-20T05:59:17;3.40;;;0.90;;
57605;SDS011;43430;48.204;11.556;2022-11-20T06:01:42;5.95;;;1.10;;
57605;SDS011;43430;48.204;11.556;2022-11-20T06:04:08;3.92;;;0.90;;
57605;SDS011;43430;48.204;11.556;2022-11-20T06:06:33;3.42;;;0.80;;
57605;SDS011;43430;48.204;11.556;2022-11-20T06:08:58;3.10;;;0.88;;
57605;SDS011;43430;48.204;11.556;2022-11-20T06:11:24;3.38;;;1.20;;
57605;SDS011;43430;48.204;11.556;2022-11-20T06:13:50;4.05;;;1.02;;
57605;SDS011;43430;48.204;11.556;2022-11-20T06:16:16;6.40;;;1.35;;
57605;SDS011;43430;48.204;11.556;2022-11-20T06:18:43;4.15;;;1.10;;
57605;SDS011;43430;48.204;11.556;2022-11-20T06:21:10;3.10;;;0.90;;
57605;SDS011;43430;48.204;11.556;2022-11-20T06:23:38;5.25;;;1.05;;
57605;SDS011;43430;48.204;11.556;2022-11-20T06:26:13;2.75;;;1.00;;
57605;SDS011;43430;48.204;11.556;2022-11-20T06:28:41;4.00;;;1.23;;
57605;SDS011;43430;48.204;11.556;2022-11-20T06:31:07;5.20;;;1.55;;
57605;SDS011;43430;48.204;11.556;2022-11-20T06:33:36;3.45;;;0.57;;
57605;SDS011;43430;48.204;11.556;2022-11-20T06:36:02;3.00;;;0.77;;
57605;SDS011;43430;48.204;11.556;2022-11-20T06:38:28;3.13;;;0.60;;
57605;SDS011;43430;48.204;11.556;2022-11-20T06:40:54;2.40;;;0.73;;
57605;SDS011;43430;48.204;11.556;2022-11-20T06:43:20;2.95;;;0.60;;
57605;SDS011;43430;48.204;11.556;2022-11-20T06:45:45;3.05;;;0.85;;
57605;SDS011;43430;48.204;11.556;2022-11-20T06:48:11;4.10;;;0.75;;
57605;SDS011;43430;48.204;11.556;2022-11-20T06:50:37;1.95;;;0.43;;
57605;SDS011;43430;48.204;11.556;2022-11-20T06:53:03;2.88;;;0.47;;
57605;SDS011;43430;48.204;11.556;2022-11-20T06:55:29;2.60;;;0.73;;
57605;SDS011;43430;48.204;11.556;2022-11-20T06:57:55;2.78;;;0.60;;
57605;SDS011;43430;48.204;11.556;2022-11-20T07:00:21;2.50;;;0.50;;
57605;SDS011;43430;48.204;11.556;2022-11-20T07:02:46;2.08;;;0.50;;
57605;SDS011;43430;48.204;11.556;2022-11-20T07:05:11;2.80;;;0.40;;
57605;SDS011;43430;48.204;11.556;2022-11-20T07:07:37;3.13;;;0.60;;
57605;SDS011;43430;48.204;11.556;2022-11-20T07:10:02;2.17;;;0.50;;
57605;SDS011;43430;48.204;11.556;2022-11-20T07:12:28;3.58;;;0.57;;
57605;SDS011;43430;48.204;11.556;2022-11-20T07:14:53;3.38;;;0.40;;
57605;SDS011;43430;48.204;11.556;2022-11-20T07:17:19;1.35;;;0.30;;
57605;SDS011;43430;48.204;11.556;2022-11-20T07:19:44;1.83;;;0.30;;
57605;SDS011;43430;48.204;11.556;2022-11-20T07:22:09;2.65;;;0.30;;
57605;SDS011;43430;48.204;11.556;2022-11-20T07:24:35;2.65;;;0.40;;
57605;SDS011;43430;48.204;11.556;2022-11-20T07:27:00;1.65;;;0.30;;
57605;SDS011;43430;48.204;11.556;2022-11-20T07:29:25;2.75;;;0.22;;
57605;SDS011;43430;48.204;11.556;2022-11-20T07:31:51;2.33;;;0.30;;
57605;SDS011;43430;48.204;11.556;2022-11-20T07:34:16;2.22;;;0.30;;
57605;SDS011;43430;48.204;11.556;2022-11-20T07:36:42;1.80;;;0.32;;
57605;SDS011;43430;48.204;11.556;2022-11-20T07:39:07;2.08;;;0.35;;
57605;SDS011;43430;48.204;11.556;2022-11-20T07:41:32;1.92;;;0.30;;
57605;SDS011;43430;48.204;11.556;2022-11-20T07:43:58;2.65;;;0.50;;
57605;SDS011;43430;48.204;11.556;2022-11-20T07:46:23;3.00;;;0.70;;
57605;SDS011;43430;48.204;11.556;2022-11-20T07:48:48;2.03;;;0.50;;
57605;SDS011;43430;48.204;11.556;2022-11-20T07:51:14;2.45;;;0.55;;
57605;SDS011;43430;48.204;11.556;2022-11-20T07:53:39;1.45;;;0.40;;
57605;SDS011;43430;48.204;11.556;2022-11-20T07:56:05;3.72;;;0.70;;
57605;SDS011;43430;48.204;11.556;2022-11-20T07:58:31;2.58;;;0.35;;
57605;SDS011;43430;48.204;11.556;2022-11-20T08:00:58;3.10;;;0.45;;
57605;SDS011;43430;48.204;11.556;2022-11-20T08:03:27;1.92;;;0.28;;
57605;SDS011;43430;48.204;11.556;2022-11-20T08:05:52;2.70;;;0.60;;
57605;SDS011;43430;48.204;11.556;2022-11-20T08:08:17;3.28;;;0.50;;
57605;SDS011;43430;48.204;11.556;2022-11-20T08:10:43;3.92;;;0.95;;
57605;SDS011;43430;48.204;11.556;2022-11-20T08:13:08;2.78;;;0.70;;
57605;SDS011;43430;48.204;11.556;2022-11-20T08:15:52;2.20;;;0.45;;
57605;SDS011;43430;48.204;11.556;2022-11-20T08:18:18;2.83;;;0.70;;
57605;SDS011;43430;48.204;11.556;2022-11-20T08:20:43;3.10;;;0.70;;
57605;SDS011;43430;48.204;11.556;2022-11-20T08:23:09;4.30;;;0.60;;
57605;SDS011;43430;48.204;11.556;2022-11-20T08:25:36;2.72;;;1.05;;
57605;SDS011;43430;48.204;11.556;2022-11-20T08:28:06;3.03;;;0.88;;
57605;SDS011;43430;48.204;11.556;2022-11-20T08:30:33;2.55;;;0.68;;
57605;SDS011;43430;48.204;11.556;2022-11-20T08:33:02;3.20;;;0.73;;
57605;SDS011;43430;48.204;11.556;2022-11-20T08:35:36;2.67;;;0.77;;
57605;SDS011;43430;48.204;11.556;2022-11-20T08:38:06;2.83;;;0.60;;
57605;SDS011;43430;48.204;11.556;2022-11-20T08:40:32;2.47;;;0.55;;
57605;SDS011;43430;48.204;11.556;2022-11-20T08:42:58;3.05;;;0.75;;
57605;SDS011;43430;48.204;11.556;2022-11-20T08:45:23;1.90;;;0.43;;
57605;SDS011;43430;48.204;11.556;2022-11-20T08:47:49;2.63;;;0.52;;
57605;SDS011;43430;48.204;11.556;2022-11-20T08:50:15;2.42;;;0.50;;
57605;SDS011;43430;48.204;11.556;2022-11-20T08:52:41;3.85;;;0.60;;
57605;SDS011;43430;48.204;11.556;2022-11-20T08:55:07;3.55;;;0.75;;
57605;SDS011;43430;48.204;11.556;2022-11-20T08:57:34;2.90;;;0.35;;
57605;SDS011;43430;48.204;11.556;2022-11-20T09:00:01;2.50;;;0.40;;
57605;SDS011;43430;48.204;11.556;2022-11-20T09:02:27;1.55;;;0.40;;
57605;SDS011;43430;48.204;11.556;2022-11-20T09:04:52;2.10;;;0.52;;
57605;SDS011;43430;48.204;11.556;2022-11-20T09:07:18;2.45;;;0.40;;
57605;SDS011;43430;48.204;11.556;2022-11-20T09:09:44;1.80;;;0.38;;
57605;SDS011;43430;48.204;11.556;2022-11-20T09:12:09;2.00;;;0.40;;
57605;SDS011;43430;48.204;11.556;2022-11-20T09:14:35;2.55;;;0.30;;
57605;SDS011;43430;48.204;11.556;2022-11-20T09:17:00;2.22;;;0.47;;
57605;SDS011;43430;48.204;11.556;2022-11-20T09:19:25;3.40;;;0.60;;
57605;SDS011;43430;48.204;11.556;2022-11-20T09:21:51;4.72;;;0.50;;
57605;SDS011;43430;48.204;11.556;2022-11-20T09:24:17;1.83;;;0.40;;
57605;SDS011;43430;48.204;11.556;2022-11-20T09:26:42;2.05;;;0.60;;
57605;SDS011;43430;48.204;11.556;2022-11-20T09:29:08;2.35;;;0.30;;
57605;SDS011;43430;48.204;11.556;2022-11-20T09:31:33;1.58;;;0.30;;
57605;SDS011;43430;48.204;11.556;2022-11-20T09:33:59;2.25;;;0.55;;
57605;SDS011;43430;48.204;11.556;2022-11-20T09:36:24;2.30;;;0.40;;
57605;SDS011;43430;48.204;11.556;2022-11-20T09:38:49;4.18;;;0.75;;
57605;SDS011;43430;48.204;11.556;2022-11-20T09:41:49;2.88;;;0.40;;
57605;SDS011;43430;48.204;11.556;2022-11-20T09:49:29;2.65;;;0.50;;
57605;SDS011;43430;48.204;11.556;2022-11-20T09:52:20;2.15;;;0.40;;
57605;SDS011;43430;48.204;11.556;2022-11-20T09:54:55;2.58;;;0.52;;
57605;SDS011;43430;48.204;11.556;2022-11-20T09:57:23;2.35;;;0.20;;
57605;SDS011;43430;48.204;11.556;2022-11-20T09:59:56;1.17;;;0.30;;
57605;SDS011;43430;48.204;11.556;2022-11-20T10:05:04;2.40;;;0.35;;
57605;SDS011;43430;48.204;11.556;2022-11-20T10:10:14;3.33;;;0.40;;
57605;SDS011;43430;48.204;11.556;2022-11-20T10:12:55;2.88;;;0.50;;
57605;SDS011;43430;48.204;11.556;2022-11-20T10:20:58;1.35;;;0.50;;
57605;SDS011;43430;48.204;11.556;2022-11-20T10:23:50;2.20;;;0.40;;
57605;SDS011;43430;48.204;11.556;2022-11-20T10:26:31;2.58;;;0.40;;
57605;SDS011;43430;48.204;11.556;2022-11-20T10:29:09;2.72;;;0.30;;
57605;SDS011;43430;48.204;11.556;2022-11-20T10:31:41;2.40;;;0.40;;
57605;SDS011;43430;48.204;11.556;2022-11-20T10:34:15;1.48;;;0.30;;
57605;SDS011;43430;48.204;11.556;2022-11-20T10:36:50;2.20;;;0.43;;
57605;SDS011;43430;48.204;11.556;2022-11-20T10:41:57;1.83;;;0.20;;
57605;SDS011;43430;48.204;11.556;2022-11-20T10:44:28;1.15;;;0.13;;
57605;SDS011;43430;48.204;11.556;2022-11-20T10:47:16;1.98;;;0.55;;
57605;SDS011;43430;48.204;11.556;2022-11-20T10:49:46;2.67;;;0.28;;
57605;SDS011;43430;48.204;11.556;2022-11-20T10:52:19;1.75;;;0.30;;
57605;SDS011;43430;48.204;11.556;2022-11-20T11:00:10;1.38;;;0.10;;
57605;SDS011;43430;48.204;11.556;2022-11-20T11:02:40;1.50;;;0.20;;
57605;SDS011;43430;48.204;11.556;2022-11-20T11:05:13;2.35;;;0.20;;
57605;SDS011;43430;48.204;11.556;2022-11-20T11:07:51;1.42;;;0.20;;
57605;SDS011;43430;48.204;11.556;2022-11-20T11:10:24;0.93;;;0.30;;
57605;SDS011;43430;48.204;11.556;2022-11-20T11:12:56;1.20;;;0.10;;
57605;SDS011;43430;48.204;11.556;2022-11-20T11:15:26;1.52;;;0.17;;
57605;SDS011;43430;48.204;11.556;2022-11-20T11:17:52;2.22;;;0.20;;
57605;SDS011;43430;48.204;11.556;2022-11-20T11:20:21;0.85;;;0.20;;
57605;SDS011;43430;48.204;11.556;2022-11-20T11:22:49;0.77;;;0.10;;
57605;SDS011;43430;48.204;11.556;2022-11-20T11:25:35;1.00;;;0.17;;
57605;SDS011;43430;48.204;11.556;2022-11-20T11:28:03;2.03;;;0.20;;
57605;SDS011;43430;48.204;11.556;2022-11-20T11:30:51;0.90;;;0.28;;
57605;SDS011;43430;48.204;11.556;2022-11-20T11:33:20;2.60;;;0.30;;
57605;SDS011;43430;48.204;11.556;2022-11-20T11:35:54;1.35;;;0.20;;
57605;SDS011;43430;48.204;11.556;2022-11-20T11:38:32;2.03;;;0.17;;
57605;SDS011;43430;48.204;11.556;2022-11-20T11:41:02;2.72;;;0.15;;
57605;SDS011;43430;48.204;11.556;2022-11-20T11:43:31;1.70;;;0.25;;
57605;SDS011;43430;48.204;11.556;2022-11-20T11:49:45;1.15;;;0.20;;
57605;SDS011;43430;48.204;11.556;2022-11-20T11:54:47;1.38;;;0.20;;
57605;SDS011;43430;48.204;11.556;2022-11-20T11:57:43;0.88;;;0.17;;
57605;SDS011;43430;48.204;11.556;2022-11-20T12:00:05;1.42;;;0.20;;
57605;SDS011;43430;48.204;11.556;2022-11-20T12:10:40;1.13;;;0.20;;
57605;SDS011;43430;48.204;11.556;2022-11-20T12:15:46;1.35;;;0.20;;
57605;SDS011;43430;48.204;11.556;2022-11-20T12:18:16;2.50;;;0.20;;
57605;SDS011;43430;48.204;11.556;2022-11-20T12:25:59;1.20;;;0.55;;
57605;SDS011;43430;48.204;11.556;2022-11-20T12:28:41;1.27;;;0.28;;
57605;SDS011;43430;48.204;11.556;2022-11-20T12:34:23;2.75;;;0.20;;
57605;SDS011;43430;48.204;11.556;2022-11-20T12:39:47;1.13;;;0.20;;
57605;SDS011;43430;48.204;11.556;2022-11-20T13:01:20;1.70;;;0.32;;
57605;SDS011;43430;48.204;11.556;2022-11-20T13:06:36;1.52;;;0.22;;
57605;SDS011;43430;48.204;11.556;2022-11-20T13:09:02;2.95;;;0.32;;
57605;SDS011;43430;48.204;11.556;2022-11-20T13:14:23;1.50;;;0.40;;
57605;SDS011;43430;48.204;11.556;2022-11-20T13:16:58;1.42;;;0.30;;
57605;SDS011;43430;48.204;11.556;2022-11-20T13:20:00;1.65;;;0.30;;
57605;SDS011;43430;48.204;11.556;2022-11-20T13:22:41;1.95;;;0.28;;
57605;SDS011;43430;48.204;11.556;2022-11-20T13:25:10;3.08;;;0.20;;
57605;SDS011;43430;48.204;11.556;2022-11-20T13:27:47;1.98;;;0.40;;
57605;SDS011;43430;48.204;11.556;2022-11-20T13:30:14;2.15;;;0.30;;
57605;SDS011;43430;48.204;11.556;2022-11-20T13:32:51;2.50;;;0.28;;
57605;SDS011;43430;48.204;11.556;2022-11-20T13:38:09;2.03;;;0.40;;
57605;SDS011;43430;48.204;11.556;2022-11-20T13:40:37;1.77;;;0.50;;
57605;SDS011;43430;48.204;11.556;2022-11-20T13:43:21;3.30;;;0.30;;
57605;SDS011;43430;48.204;11.556;2022-11-20T13:46:00;1.33;;;0.45;;
57605;SDS011;43430;48.204;11.556;2022-11-20T13:48:29;1.88;;;0.43;;
57605;SDS011;43430;48.204;11.556;2022-11-20T13:51:09;2.13;;;0.40;;
57605;SDS011;43430;48.204;11.556;2022-11-20T13:59:33;2.88;;;0.40;;
57605;SDS011;43430;48.204;11.556;2022-11-20T14:02:15;3.17;;;0.40;;
57605;SDS011;43430;48.204;11.556;2022-11-20T14:04:43;3.65;;;0.70;;
57605;SDS011;43430;48.204;11.556;2022-11-20T14:07:12;1.60;;;0.22;;
57605;SDS011;43430;48.204;11.556;2022-11-20T14:09:37;1.77;;;0.30;;
57605;SDS011;43430;48.204;11.556;2022-11-20T14:12:03;2.80;;;0.40;;
57605;SDS011;43430;48.204;11.556;2022-11-20T14:14:46;2.97;;;0.55;;
57605;SDS011;43430;48.204;11.556;2022-11-20T14:17:19;2.95;;;0.43;;
57605;SDS011;43430;48.204;11.556;2022-11-20T14:19:48;2.78;;;0.43;;
57605;SDS011;43430;48.204;11.556;2022-11-20T14:22:17;1.90;;;0.55;;
57605;SDS011;43430;48.204;11.556;2022-11-20T14:27:37;3.25;;;0.35;;
57605;SDS011;43430;48.204;11.556;2022-11-20T14:30:04;1.50;;;0.20;;
57605;SDS011;43430;48.204;11.556;2022-11-20T14:32:31;2.22;;;0.50;;
57605;SDS011;43430;48.204;11.556;2022-11-20T14:35:02;1.98;;;0.30;;
57605;SDS011;43430;48.204;11.556;2022-11-20T14:37:33;3.90;;;0.30;;
57605;SDS011;43430;48.204;11.556;2022-11-20T14:40:05;2.83;;;0.60;;
57605;SDS011;43430;48.204;11.556;2022-11-20T14:42:47;2.20;;;0.38;;
57605;SDS011;43430;48.204;11.556;2022-11-20T14:45:12;2.55;;;0.30;;
57605;SDS011;43430;48.204;11.556;2022-11-20T14:47:38;2.80;;;0.50;;
57605;SDS011;43430;48.204;11.556;2022-11-20T14:50:07;2.90;;;0.20;;
57605;SDS011;43430;48.204;11.556;2022-11-20T14:52:49;2.53;;;0.43;;
57605;SDS011;43430;48.204;11.556;2022-11-20T14:55:24;1.70;;;0.22;;
57605;SDS011;43430;48.204;11.556;2022-11-20T14:57:54;2.28;;;0.22;;
57605;SDS011;43430;48.204;11.556;2022-11-20T15:00:21;2.47;;;0.30;;
57605;SDS011;43430;48.204;11.556;2022-11-20T15:02:48;2.13;;;0.20;;
57605;SDS011;43430;48.204;11.556;2022-11-20T15:05:15;0.90;;;0.10;;
57605;SDS011;43430;48.204;11.556;2022-11-20T15:07:44;1.58;;;0.25;;
57605;SDS011;43430;48.204;11.556;2022-11-20T15:12:54;1.25;;;0.30;;
57605;SDS011;43430;48.204;11.556;2022-11-20T15:15:32;0.90;;;0.10;;
57605;SDS011;43430;48.204;11.556;2022-11-20T15:18:01;1.63;;;0.20;;
57605;SDS011;43430;48.204;11.556;2022-11-20T15:20:29;2.05;;;0.10;;
57605;SDS011;43430;48.204;11.556;2022-11-20T15:22:57;1.17;;;0.10;;
57605;SDS011;43430;48.204;11.556;2022-11-20T15:25:22;1.02;;;0.13;;
57605;SDS011;43430;48.204;11.556;2022-11-20T15:27:50;3.33;;;0.13;;
57605;SDS011;43430;48.204;11.556;2022-11-20T15:30:20;2.50;;;0.35;;
57605;SDS011;43430;48.204;11.556;2022-11-20T15:32:46;1.83;;;0.40;;
57605;SDS011;43430;48.204;11.556;2022-11-20T15:35:12;1.75;;;0.13;;
57605;SDS011;43430;48.204;11.556;2022-11-20T15:37:38;0.50;;;0.10;;
57605;SDS011;43430;48.204;11.556;2022-11-20T15:40:04;1.13;;;0.22;;
57605;SDS011;43430;48.204;11.556;2022-11-20T15:42:31;1.40;;;0.10;;
57605;SDS011;43430;48.204;11.556;2022-11-20T15:44:56;0.82;;;0.10;;
57605;SDS011;43430;48.204;11.556;2022-11-20T15:47:23;0.70;;;0.10;;
57605;SDS011;43430;48.204;11.556;2022-11-20T15:49:53;1.73;;;0.22;;
57605;SDS011;43430;48.204;11.556;2022-11-20T15:52:18;1.13;;;0.30;;
57605;SDS011;43430;48.204;11.556;2022-11-20T15:54:43;1.33;;;0.20;;
57605;SDS011;43430;48.204;11.556;2022-11-20T15:57:09;1.75;;;0.10;;
57605;SDS011;43430;48.204;11.556;2022-11-20T15:59:34;0.77;;;0.10;;
57605;SDS011;43430;48.204;11.556;2022-11-20T16:02:01;1.15;;;0.10;;
57605;SDS011;43430;48.204;11.556;2022-11-20T16:04:27;0.88;;;0.10;;
57605;SDS011;43430;48.204;11.556;2022-11-20T16:06:52;1.20;;;0.17;;
57605;SDS011;43430;48.204;11.556;2022-11-20T16:09:18;1.67;;;0.20;;
57605;SDS011;43430;48.204;11.556;2022-11-20T16:11:43;0.73;;;0.28;;
57605;SDS011;43430;48.204;11.556;2022-11-20T16:14:10;1.60;;;0.20;;